sensor_id;sensor_type;location;lat;lon;timestamp;temperature;humidity
21861;DHT22;11095;48.066;8.540;2022-11-15T00:01:47;4.80;99.90
21861;DHT22;11095;48.066;8.540;2022-11-15T00:04:12;4.90;99.90
21861;DHT22;11095;48.066;8.540;2022-11-15T00:06:38;4.90;99.90
21861;DHT22;11095;48.066;8.540;2022-11-15T00:09:03;5.00;99.90
21861;DHT22;11095;48.066;8.540;2022-11-15T00:11:29;5.00;99.90
21861;DHT22;11095;48.066;8.540;2022-11-15T00:13:56;5.10;99.90
21861;DHT22;11095;48.066;8.540;2022-11-15T00:16:23;5.10;99.90
21861;DHT22;11095;48.066;8.540;2022-11-15T00:18:48;5.10;99.90
21861;DHT22;11095;48.066;8.540;2022-11-15T00:21:14;5.20;99.90
21861;DHT22;11095;48.066;8.540;2022-11-15T00:23:40;5.20;99.90
21861;DHT22;11095;48.066;8.540;2022-11-15T00:26:07;5.20;99.90
21861;DHT22;11095;48.066;8.540;2022-11-15T00:28:33;5.20;99.90
21861;DHT22;11095;48.066;8.540;2022-11-15T00:31:03;5.20;99.90
21861;DHT22;11095;48.066;8.540;2022-11-15T00:33:29;5.20;99.90
21861;DHT22;11095;48.066;8.540;2022-11-15T00:36:07;5.20;99.90
21861;DHT22;11095;48.066;8.540;2022-11-15T00:38:35;5.10;99.90
21861;DHT22;11095;48.066;8.540;2022-11-15T00:41:03;5.10;99.90
21861;DHT22;11095;48.066;8.540;2022-11-15T00:43:29;5.10;99.90
21861;DHT22;11095;48.066;8.540;2022-11-15T00:45:55;5.10;99.90
21861;DHT22;11095;48.066;8.540;2022-11-15T00:48:21;5.10;99.90
21861;DHT22;11095;48.066;8.540;2022-11-15T00:50:47;5.00;99.90
21861;DHT22;11095;48.066;8.540;2022-11-15T00:53:13;5.00;99.90
21861;DHT22;11095;48.066;8.540;2022-11-15T00:55:38;5.10;99.90
21861;DHT22;11095;48.066;8.540;2022-11-15T00:58:04;5.10;99.90
21861;DHT22;11095;48.066;8.540;2022-11-15T01:00:30;5.10;99.90
21861;DHT22;11095;48.066;8.540;2022-11-15T01:02:55;5.10;99.90
21861;DHT22;11095;48.066;8.540;2022-11-15T01:05:21;5.10;99.90
21861;DHT22;11095;48.066;8.540;2022-11-15T01:07:47;5.10;99.90
21861;DHT22;11095;48.066;8.540;2022-11-15T01:10:12;5.10;99.90
21861;DHT22;11095;48.066;8.540;2022-11-15T01:12:38;5.10;99.90
21861;DHT22;11095;48.066;8.540;2022-11-15T01:15:04;5.10;99.90
21861;DHT22;11095;48.066;8.540;2022-11-15T01:17:31;5.10;99.90
21861;DHT22;11095;48.066;8.540;2022-11-15T01:19:57;5.10;99.90
21861;DHT22;11095;48.066;8.540;2022-11-15T01:22:22;5.00;99.90
21861;DHT22;11095;48.066;8.540;2022-11-15T01:24:51;5.00;99.90
21861;DHT22;11095;48.066;8.540;2022-11-15T01:27:17;5.00;99.90
21861;DHT22;11095;48.066;8.540;2022-11-15T01:29:42;4.90;99.90
21861;DHT22;11095;48.066;8.540;2022-11-15T01:32:08;4.90;99.90
21861;DHT22;11095;48.066;8.540;2022-11-15T01:34:34;4.80;99.90
21861;DHT22;11095;48.066;8.540;2022-11-15T01:36:59;4.80;99.90
21861;DHT22;11095;48.066;8.540;2022-11-15T01:39:25;4.80;99.90
21861;DHT22;11095;48.066;8.540;2022-11-15T01:41:52;4.80;99.90
21861;DHT22;11095;48.066;8.540;2022-11-15T01:44:41;4.70;99.90
21861;DHT22;11095;48.066;8.540;2022-11-15T01:47:28;4.70;99.90
21861;DHT22;11095;48.066;8.540;2022-11-15T01:49:56;4.70;99.90
21861;DHT22;11095;48.066;8.540;2022-11-15T01:52:25;4.80;99.90
21861;DHT22;11095;48.066;8.540;2022-11-15T01:57:37;4.80;99.90
21861;DHT22;11095;48.066;8.540;2022-11-15T02:00:06;4.90;99.90
21861;DHT22;11095;48.066;8.540;2022-11-15T02:02:32;4.90;99.90
21861;DHT22;11095;48.066;8.540;2022-11-15T02:04:59;5.00;99.90
21861;DHT22;11095;48.066;8.540;2022-11-15T02:07:25;5.00;99.90
21861;DHT22;11095;48.066;8.540;2022-11-15T02:09:51;5.10;99.90
21861;DHT22;11095;48.066;8.540;2022-11-15T02:12:19;5.10;99.90
21861;DHT22;11095;48.066;8.540;2022-11-15T02:14:49;5.20;99.90
21861;DHT22;11095;48.066;8.540;2022-11-15T02:31:49;5.30;99.90
21861;DHT22;11095;48.066;8.540;2022-11-15T02:39:49;5.20;99.90
21861;DHT22;11095;48.066;8.540;2022-11-15T02:42:25;5.20;99.90
21861;DHT22;11095;48.066;8.540;2022-11-15T02:45:13;5.30;99.90
21861;DHT22;11095;48.066;8.540;2022-11-15T02:47:43;5.30;99.90
21861;DHT22;11095;48.066;8.540;2022-11-15T02:50:16;5.40;99.90
21861;DHT22;11095;48.066;8.540;2022-11-15T02:52:48;5.50;99.90
21861;DHT22;11095;48.066;8.540;2022-11-15T02:55:30;5.50;99.90
21861;DHT22;11095;48.066;8.540;2022-11-15T03:11:29;5.60;99.90
21861;DHT22;11095;48.066;8.540;2022-11-15T03:14:08;5.60;99.90
21861;DHT22;11095;48.066;8.540;2022-11-15T03:16:57;5.60;99.90
21861;DHT22;11095;48.066;8.540;2022-11-15T03:19:40;5.70;99.90
21861;DHT22;11095;48.066;8.540;2022-11-15T03:22:12;5.70;99.90
21861;DHT22;11095;48.066;8.540;2022-11-15T03:24:40;5.70;99.90
21861;DHT22;11095;48.066;8.540;2022-11-15T03:27:09;5.70;99.90
21861;DHT22;11095;48.066;8.540;2022-11-15T03:29:41;5.70;99.90
21861;DHT22;11095;48.066;8.540;2022-11-15T03:32:16;5.70;99.90
21861;DHT22;11095;48.066;8.540;2022-11-15T03:35:04;5.70;99.90
21861;DHT22;11095;48.066;8.540;2022-11-15T03:37:35;5.70;99.90
21861;DHT22;11095;48.066;8.540;2022-11-15T03:40:03;5.70;99.90
21861;DHT22;11095;48.066;8.540;2022-11-15T03:42:46;5.60;99.90
21861;DHT22;11095;48.066;8.540;2022-11-15T03:45:23;5.60;99.90
21861;DHT22;11095;48.066;8.540;2022-11-15T03:48:02;5.60;99.90
21861;DHT22;11095;48.066;8.540;2022-11-15T03:50:31;5.60;99.90
21861;DHT22;11095;48.066;8.540;2022-11-15T03:52:57;5.50;99.90
21861;DHT22;11095;48.066;8.540;2022-11-15T03:55:23;5.50;99.90
21861;DHT22;11095;48.066;8.540;2022-11-15T03:57:52;5.50;99.90
21861;DHT22;11095;48.066;8.540;2022-11-15T04:00:18;5.50;99.90
21861;DHT22;11095;48.066;8.540;2022-11-15T04:02:44;5.50;99.90
21861;DHT22;11095;48.066;8.540;2022-11-15T04:05:10;5.50;99.90
21861;DHT22;11095;48.066;8.540;2022-11-15T04:07:36;5.60;99.90
21861;DHT22;11095;48.066;8.540;2022-11-15T04:10:02;5.60;99.90
21861;DHT22;11095;48.066;8.540;2022-11-15T04:12:32;5.60;99.90
21861;DHT22;11095;48.066;8.540;2022-11-15T04:15:04;5.60;99.90
21861;DHT22;11095;48.066;8.540;2022-11-15T04:17:59;5.70;99.90
21861;DHT22;11095;48.066;8.540;2022-11-15T04:20:30;5.70;99.90
21861;DHT22;11095;48.066;8.540;2022-11-15T04:23:20;5.70;99.90
21861;DHT22;11095;48.066;8.540;2022-11-15T04:26:21;5.70;99.90
21861;DHT22;11095;48.066;8.540;2022-11-15T04:28:47;5.70;99.90
21861;DHT22;11095;48.066;8.540;2022-11-15T04:31:31;5.80;99.90
21861;DHT22;11095;48.066;8.540;2022-11-15T04:33:57;5.80;99.90
21861;DHT22;11095;48.066;8.540;2022-11-15T04:36:23;5.80;99.90
21861;DHT22;11095;48.066;8.540;2022-11-15T04:39:08;5.80;99.90
21861;DHT22;11095;48.066;8.540;2022-11-15T04:41:33;5.80;99.90
21861;DHT22;11095;48.066;8.540;2022-11-15T04:43:59;5.80;99.90
21861;DHT22;11095;48.066;8.540;2022-11-15T04:46:25;5.90;99.90
21861;DHT22;11095;48.066;8.540;2022-11-15T04:48:52;5.90;99.90
21861;DHT22;11095;48.066;8.540;2022-11-15T04:51:19;5.90;99.90
21861;DHT22;11095;48.066;8.540;2022-11-15T04:53:44;5.90;99.90
21861;DHT22;11095;48.066;8.540;2022-11-15T04:56:10;5.90;99.90
21861;DHT22;11095;48.066;8.540;2022-11-15T04:58:36;5.90;99.90
21861;DHT22;11095;48.066;8.540;2022-11-15T05:01:08;5.90;99.90
21861;DHT22;11095;48.066;8.540;2022-11-15T05:03:34;5.90;99.90
21861;DHT22;11095;48.066;8.540;2022-11-15T05:06:18;5.90;99.90
21861;DHT22;11095;48.066;8.540;2022-11-15T05:08:44;5.90;99.90
21861;DHT22;11095;48.066;8.540;2022-11-15T05:11:09;5.90;99.90
21861;DHT22;11095;48.066;8.540;2022-11-15T05:13:35;5.90;99.90
21861;DHT22;11095;48.066;8.540;2022-11-15T05:16:01;5.90;99.90
21861;DHT22;11095;48.066;8.540;2022-11-15T05:18:26;5.80;99.90
21861;DHT22;11095;48.066;8.540;2022-11-15T05:20:52;5.80;99.90
21861;DHT22;11095;48.066;8.540;2022-11-15T05:23:17;5.80;99.90
21861;DHT22;11095;48.066;8.540;2022-11-15T05:25:43;5.80;99.90
21861;DHT22;11095;48.066;8.540;2022-11-15T05:28:09;5.80;99.90
21861;DHT22;11095;48.066;8.540;2022-11-15T05:30:34;5.70;99.90
21861;DHT22;11095;48.066;8.540;2022-11-15T05:33:00;5.80;99.90
21861;DHT22;11095;48.066;8.540;2022-11-15T05:38:08;5.80;99.90
21861;DHT22;11095;48.066;8.540;2022-11-15T05:40:34;5.80;99.90
21861;DHT22;11095;48.066;8.540;2022-11-15T05:43:02;5.90;99.90
21861;DHT22;11095;48.066;8.540;2022-11-15T05:45:29;5.90;99.90
21861;DHT22;11095;48.066;8.540;2022-11-15T05:47:56;6.00;99.90
21861;DHT22;11095;48.066;8.540;2022-11-15T05:50:23;6.00;99.90
21861;DHT22;11095;48.066;8.540;2022-11-15T05:52:49;6.00;99.90
21861;DHT22;11095;48.066;8.540;2022-11-15T05:55:15;6.00;99.90
21861;DHT22;11095;48.066;8.540;2022-11-15T05:57:40;6.00;99.90
21861;DHT22;11095;48.066;8.540;2022-11-15T06:00:07;6.00;99.90
21861;DHT22;11095;48.066;8.540;2022-11-15T06:02:33;6.00;99.90
21861;DHT22;11095;48.066;8.540;2022-11-15T06:04:59;6.00;99.90
21861;DHT22;11095;48.066;8.540;2022-11-15T06:07:24;6.00;99.90
21861;DHT22;11095;48.066;8.540;2022-11-15T06:09:50;5.90;99.90
21861;DHT22;11095;48.066;8.540;2022-11-15T06:12:15;5.90;99.90
21861;DHT22;11095;48.066;8.540;2022-11-15T06:14:41;5.90;99.90
21861;DHT22;11095;48.066;8.540;2022-11-15T06:17:07;5.90;99.90
21861;DHT22;11095;48.066;8.540;2022-11-15T06:19:32;5.80;99.90
21861;DHT22;11095;48.066;8.540;2022-11-15T06:21:59;5.80;99.90
21861;DHT22;11095;48.066;8.540;2022-11-15T06:24:25;5.80;99.90
21861;DHT22;11095;48.066;8.540;2022-11-15T06:26:51;5.80;99.90
21861;DHT22;11095;48.066;8.540;2022-11-15T06:29:16;5.80;99.90
21861;DHT22;11095;48.066;8.540;2022-11-15T06:31:42;5.70;99.90
21861;DHT22;11095;48.066;8.540;2022-11-15T06:34:08;5.80;99.90
21861;DHT22;11095;48.066;8.540;2022-11-15T06:36:36;5.80;99.90
21861;DHT22;11095;48.066;8.540;2022-11-15T06:39:05;5.80;99.90
21861;DHT22;11095;48.066;8.540;2022-11-15T06:41:34;5.90;99.90
21861;DHT22;11095;48.066;8.540;2022-11-15T06:44:00;6.00;99.90
21861;DHT22;11095;48.066;8.540;2022-11-15T06:46:26;6.10;99.90
21861;DHT22;11095;48.066;8.540;2022-11-15T06:48:52;6.30;99.90
21861;DHT22;11095;48.066;8.540;2022-11-15T06:51:18;6.90;99.90
21861;DHT22;11095;48.066;8.540;2022-11-15T06:53:43;7.60;99.90
21861;DHT22;11095;48.066;8.540;2022-11-15T06:56:09;8.10;99.90
21861;DHT22;11095;48.066;8.540;2022-11-15T06:58:35;8.50;99.90
21861;DHT22;11095;48.066;8.540;2022-11-15T07:01:06;8.60;99.90
21861;DHT22;11095;48.066;8.540;2022-11-15T07:03:35;8.50;99.90
21861;DHT22;11095;48.066;8.540;2022-11-15T07:06:01;8.40;99.90
21861;DHT22;11095;48.066;8.540;2022-11-15T07:08:28;8.30;99.90
21861;DHT22;11095;48.066;8.540;2022-11-15T07:10:57;8.20;99.90
21861;DHT22;11095;48.066;8.540;2022-11-15T07:13:28;8.10;99.90
21861;DHT22;11095;48.066;8.540;2022-11-15T07:15:53;8.00;99.90
21861;DHT22;11095;48.066;8.540;2022-11-15T07:18:19;7.90;99.90
21861;DHT22;11095;48.066;8.540;2022-11-15T07:20:45;7.80;99.90
21861;DHT22;11095;48.066;8.540;2022-11-15T07:23:11;7.70;99.90
21861;DHT22;11095;48.066;8.540;2022-11-15T07:25:37;7.70;99.90
21861;DHT22;11095;48.066;8.540;2022-11-15T07:28:03;7.60;99.90
21861;DHT22;11095;48.066;8.540;2022-11-15T07:30:29;7.60;99.90
21861;DHT22;11095;48.066;8.540;2022-11-15T07:32:55;7.60;99.90
21861;DHT22;11095;48.066;8.540;2022-11-15T07:35:20;7.50;99.90
21861;DHT22;11095;48.066;8.540;2022-11-15T07:38:02;7.50;99.90
21861;DHT22;11095;48.066;8.540;2022-11-15T07:40:30;7.50;99.90
21861;DHT22;11095;48.066;8.540;2022-11-15T07:43:05;7.50;99.90
21861;DHT22;11095;48.066;8.540;2022-11-15T07:45:31;7.50;99.90
21861;DHT22;11095;48.066;8.540;2022-11-15T07:47:59;7.50;99.90
21861;DHT22;11095;48.066;8.540;2022-11-15T07:50:25;7.60;99.90
21861;DHT22;11095;48.066;8.540;2022-11-15T07:52:58;7.60;99.90
21861;DHT22;11095;48.066;8.540;2022-11-15T07:55:25;7.70;99.90
21861;DHT22;11095;48.066;8.540;2022-11-15T07:57:53;7.80;99.90
21861;DHT22;11095;48.066;8.540;2022-11-15T08:00:19;7.80;99.90
21861;DHT22;11095;48.066;8.540;2022-11-15T08:02:45;7.90;99.90
21861;DHT22;11095;48.066;8.540;2022-11-15T08:05:11;7.90;99.90
21861;DHT22;11095;48.066;8.540;2022-11-15T08:07:37;8.00;99.90
21861;DHT22;11095;48.066;8.540;2022-11-15T08:10:04;8.00;99.90
21861;DHT22;11095;48.066;8.540;2022-11-15T08:12:31;7.90;99.90
21861;DHT22;11095;48.066;8.540;2022-11-15T08:14:57;7.90;99.90
21861;DHT22;11095;48.066;8.540;2022-11-15T08:17:24;7.90;99.90
21861;DHT22;11095;48.066;8.540;2022-11-15T08:19:50;7.90;99.90
21861;DHT22;11095;48.066;8.540;2022-11-15T08:22:16;7.90;99.90
21861;DHT22;11095;48.066;8.540;2022-11-15T08:24:42;7.90;99.90
21861;DHT22;11095;48.066;8.540;2022-11-15T08:27:07;8.00;99.90
21861;DHT22;11095;48.066;8.540;2022-11-15T08:29:41;8.10;99.90
21861;DHT22;11095;48.066;8.540;2022-11-15T08:32:07;8.10;99.90
21861;DHT22;11095;48.066;8.540;2022-11-15T08:34:32;8.20;99.90
21861;DHT22;11095;48.066;8.540;2022-11-15T08:36:58;8.30;99.90
21861;DHT22;11095;48.066;8.540;2022-11-15T08:39:24;8.30;99.90
21861;DHT22;11095;48.066;8.540;2022-11-15T08:41:49;8.40;99.90
21861;DHT22;11095;48.066;8.540;2022-11-15T08:44:15;8.50;99.90
21861;DHT22;11095;48.066;8.540;2022-11-15T08:46:40;8.70;99.90
21861;DHT22;11095;48.066;8.540;2022-11-15T08:49:06;8.90;99.90
21861;DHT22;11095;48.066;8.540;2022-11-15T08:51:32;9.00;99.90
21861;DHT22;11095;48.066;8.540;2022-11-15T08:53:57;9.20;99.90
21861;DHT22;11095;48.066;8.540;2022-11-15T08:56:23;9.40;99.90
21861;DHT22;11095;48.066;8.540;2022-11-15T08:58:49;9.50;99.90
21861;DHT22;11095;48.066;8.540;2022-11-15T09:01:19;9.80;99.90
21861;DHT22;11095;48.066;8.540;2022-11-15T09:03:46;10.00;99.90
21861;DHT22;11095;48.066;8.540;2022-11-15T09:06:11;10.10;99.90
21861;DHT22;11095;48.066;8.540;2022-11-15T09:08:37;10.20;99.90
21861;DHT22;11095;48.066;8.540;2022-11-15T09:11:08;10.30;99.90
21861;DHT22;11095;48.066;8.540;2022-11-15T09:13:34;10.30;99.90
21861;DHT22;11095;48.066;8.540;2022-11-15T09:16:02;10.40;99.90
21861;DHT22;11095;48.066;8.540;2022-11-15T09:18:28;10.40;99.90
21861;DHT22;11095;48.066;8.540;2022-11-15T09:20:58;10.50;99.90
21861;DHT22;11095;48.066;8.540;2022-11-15T09:23:24;10.60;99.90
21861;DHT22;11095;48.066;8.540;2022-11-15T09:25:51;10.70;99.90
21861;DHT22;11095;48.066;8.540;2022-11-15T09:28:16;10.90;99.90
21861;DHT22;11095;48.066;8.540;2022-11-15T09:30:43;11.20;99.90
21861;DHT22;11095;48.066;8.540;2022-11-15T09:33:09;11.60;99.90
21861;DHT22;11095;48.066;8.540;2022-11-15T09:35:36;11.70;99.90
21861;DHT22;11095;48.066;8.540;2022-11-15T09:38:02;11.80;99.90
21861;DHT22;11095;48.066;8.540;2022-11-15T09:40:30;11.80;99.90
21861;DHT22;11095;48.066;8.540;2022-11-15T09:43:32;11.80;99.90
21861;DHT22;11095;48.066;8.540;2022-11-15T09:50:59;11.70;99.90
21861;DHT22;11095;48.066;8.540;2022-11-15T09:53:47;11.60;99.90
21861;DHT22;11095;48.066;8.540;2022-11-15T09:56:21;11.50;99.90
21861;DHT22;11095;48.066;8.540;2022-11-15T09:58:53;11.40;99.90
21861;DHT22;11095;48.066;8.540;2022-11-15T10:04:24;11.30;99.90
21861;DHT22;11095;48.066;8.540;2022-11-15T10:07:34;11.20;99.90
21861;DHT22;11095;48.066;8.540;2022-11-15T10:10:02;11.20;99.90
21861;DHT22;11095;48.066;8.540;2022-11-15T10:12:30;11.10;99.90
21861;DHT22;11095;48.066;8.540;2022-11-15T10:15:11;11.00;99.90
21861;DHT22;11095;48.066;8.540;2022-11-15T10:17:54;10.90;99.90
21861;DHT22;11095;48.066;8.540;2022-11-15T10:20:28;10.90;99.90
21861;DHT22;11095;48.066;8.540;2022-11-15T10:22:58;10.90;99.90
21861;DHT22;11095;48.066;8.540;2022-11-15T10:25:28;10.90;99.90
21861;DHT22;11095;48.066;8.540;2022-11-15T10:30:46;11.20;99.90
21861;DHT22;11095;48.066;8.540;2022-11-15T10:33:25;11.20;99.90
21861;DHT22;11095;48.066;8.540;2022-11-15T10:41:37;11.70;99.90
21861;DHT22;11095;48.066;8.540;2022-11-15T10:44:11;11.70;99.90
21861;DHT22;11095;48.066;8.540;2022-11-15T10:46:39;11.90;99.90
21861;DHT22;11095;48.066;8.540;2022-11-15T10:49:25;11.90;99.90
21861;DHT22;11095;48.066;8.540;2022-11-15T10:57:23;12.10;99.90
21861;DHT22;11095;48.066;8.540;2022-11-15T10:59:55;12.20;99.90
21861;DHT22;11095;48.066;8.540;2022-11-15T11:02:30;12.30;99.90
21861;DHT22;11095;48.066;8.540;2022-11-15T11:04:57;12.40;99.90
21861;DHT22;11095;48.066;8.540;2022-11-15T11:07:29;12.40;99.90
21861;DHT22;11095;48.066;8.540;2022-11-15T11:10:24;12.50;99.90
21861;DHT22;11095;48.066;8.540;2022-11-15T11:12:49;12.40;99.90
21861;DHT22;11095;48.066;8.540;2022-11-15T11:15:16;12.30;99.90
21861;DHT22;11095;48.066;8.540;2022-11-15T11:18:25;12.30;99.90
21861;DHT22;11095;48.066;8.540;2022-11-15T11:20:59;12.30;99.90
21861;DHT22;11095;48.066;8.540;2022-11-15T11:26:35;12.20;99.90
21861;DHT22;11095;48.066;8.540;2022-11-15T11:40:43;12.00;99.90
21861;DHT22;11095;48.066;8.540;2022-11-15T11:44:07;11.90;99.90
21861;DHT22;11095;48.066;8.540;2022-11-15T11:52:16;11.70;99.90
21861;DHT22;11095;48.066;8.540;2022-11-15T12:00:24;11.60;99.90
21861;DHT22;11095;48.066;8.540;2022-11-15T12:03:09;11.60;99.90
21861;DHT22;11095;48.066;8.540;2022-11-15T12:08:48;11.80;99.90
21861;DHT22;11095;48.066;8.540;2022-11-15T12:13:45;11.90;99.90
21861;DHT22;11095;48.066;8.540;2022-11-15T12:16:30;12.00;99.90
21861;DHT22;11095;48.066;8.540;2022-11-15T12:19:01;12.10;99.90
21861;DHT22;11095;48.066;8.540;2022-11-15T12:21:50;12.00;99.90
21861;DHT22;11095;48.066;8.540;2022-11-15T12:24:44;12.10;99.90
21861;DHT22;11095;48.066;8.540;2022-11-15T12:27:20;12.10;99.90
21861;DHT22;11095;48.066;8.540;2022-11-15T12:29:53;12.20;99.90
21861;DHT22;11095;48.066;8.540;2022-11-15T12:32:28;12.20;99.90
21861;DHT22;11095;48.066;8.540;2022-11-15T12:34:55;12.10;99.90
21861;DHT22;11095;48.066;8.540;2022-11-15T12:45:41;12.20;99.90
21861;DHT22;11095;48.066;8.540;2022-11-15T12:50:59;12.30;99.90
21861;DHT22;11095;48.066;8.540;2022-11-15T12:53:28;12.30;99.90
21861;DHT22;11095;48.066;8.540;2022-11-15T12:58:46;12.20;99.90
21861;DHT22;11095;48.066;8.540;2022-11-15T13:07:04;11.90;99.90
21861;DHT22;11095;48.066;8.540;2022-11-15T13:17:45;11.60;99.90
21861;DHT22;11095;48.066;8.540;2022-11-15T13:30:59;11.40;99.90
21861;DHT22;11095;48.066;8.540;2022-11-15T13:35:58;11.30;99.90
21861;DHT22;11095;48.066;8.540;2022-11-15T13:38:26;11.20;99.90
21861;DHT22;11095;48.066;8.540;2022-11-15T13:40:52;11.30;99.90
21861;DHT22;11095;48.066;8.540;2022-11-15T13:48:35;11.30;99.90
21861;DHT22;11095;48.066;8.540;2022-11-15T13:51:07;11.30;99.90
21861;DHT22;11095;48.066;8.540;2022-11-15T13:53:37;11.30;99.90
21861;DHT22;11095;48.066;8.540;2022-11-15T13:56:04;11.20;99.90
21861;DHT22;11095;48.066;8.540;2022-11-15T13:58:30;11.20;99.90
21861;DHT22;11095;48.066;8.540;2022-11-15T14:01:02;11.10;99.90
21861;DHT22;11095;48.066;8.540;2022-11-15T14:03:35;11.00;99.90
21861;DHT22;11095;48.066;8.540;2022-11-15T14:06:10;10.90;99.90
21861;DHT22;11095;48.066;8.540;2022-11-15T14:08:42;10.80;99.90
21861;DHT22;11095;48.066;8.540;2022-11-15T14:11:20;10.80;99.90
21861;DHT22;11095;48.066;8.540;2022-11-15T14:14:19;10.70;99.90
21861;DHT22;11095;48.066;8.540;2022-11-15T14:16:51;10.60;99.90
21861;DHT22;11095;48.066;8.540;2022-11-15T14:24:45;10.50;99.90
21861;DHT22;11095;48.066;8.540;2022-11-15T14:27:21;10.50;99.90
21861;DHT22;11095;48.066;8.540;2022-11-15T14:29:47;10.40;99.90
21861;DHT22;11095;48.066;8.540;2022-11-15T14:32:23;10.50;99.90
21861;DHT22;11095;48.066;8.540;2022-11-15T14:37:28;10.40;99.90
21861;DHT22;11095;48.066;8.540;2022-11-15T14:39:54;10.30;99.90
21861;DHT22;11095;48.066;8.540;2022-11-15T14:42:23;10.30;99.90
21861;DHT22;11095;48.066;8.540;2022-11-15T14:44:49;10.20;99.90
21861;DHT22;11095;48.066;8.540;2022-11-15T14:47:15;10.20;99.90
21861;DHT22;11095;48.066;8.540;2022-11-15T14:49:41;10.20;99.90
21861;DHT22;11095;48.066;8.540;2022-11-15T14:52:27;10.10;99.90
21861;DHT22;11095;48.066;8.540;2022-11-15T14:54:55;10.10;99.90
21861;DHT22;11095;48.066;8.540;2022-11-15T14:57:21;10.10;99.90
21861;DHT22;11095;48.066;8.540;2022-11-15T14:59:47;10.10;99.90
21861;DHT22;11095;48.066;8.540;2022-11-15T15:02:23;10.10;99.90
21861;DHT22;11095;48.066;8.540;2022-11-15T15:04:50;10.10;99.90
21861;DHT22;11095;48.066;8.540;2022-11-15T15:07:16;10.10;99.90
21861;DHT22;11095;48.066;8.540;2022-11-15T15:09:43;10.10;99.90
21861;DHT22;11095;48.066;8.540;2022-11-15T15:14:42;10.00;99.90
21861;DHT22;11095;48.066;8.540;2022-11-15T15:17:08;9.90;99.90
21861;DHT22;11095;48.066;8.540;2022-11-15T15:19:33;9.90;99.90
21861;DHT22;11095;48.066;8.540;2022-11-15T15:21:59;9.90;99.90
21861;DHT22;11095;48.066;8.540;2022-11-15T15:24:25;9.80;99.90
21861;DHT22;11095;48.066;8.540;2022-11-15T15:26:51;9.80;99.90
21861;DHT22;11095;48.066;8.540;2022-11-15T15:29:16;9.70;99.90
21861;DHT22;11095;48.066;8.540;2022-11-15T15:31:42;9.70;99.90
21861;DHT22;11095;48.066;8.540;2022-11-15T15:34:07;9.70;99.90
21861;DHT22;11095;48.066;8.540;2022-11-15T15:36:33;9.60;99.90
21861;DHT22;11095;48.066;8.540;2022-11-15T15:38:59;9.60;99.90
21861;DHT22;11095;48.066;8.540;2022-11-15T15:41:24;9.50;99.90
21861;DHT22;11095;48.066;8.540;2022-11-15T15:43:50;9.50;99.90
21861;DHT22;11095;48.066;8.540;2022-11-15T15:46:17;9.40;99.90
21861;DHT22;11095;48.066;8.540;2022-11-15T15:48:43;9.40;99.90
21861;DHT22;11095;48.066;8.540;2022-11-15T15:51:09;9.40;99.90
21861;DHT22;11095;48.066;8.540;2022-11-15T15:53:35;9.30;99.90
21861;DHT22;11095;48.066;8.540;2022-11-15T15:56:01;9.30;99.90
21861;DHT22;11095;48.066;8.540;2022-11-15T15:58:27;9.20;99.90
21861;DHT22;11095;48.066;8.540;2022-11-15T16:00:52;9.20;99.90
21861;DHT22;11095;48.066;8.540;2022-11-15T16:03:18;9.20;99.90
21861;DHT22;11095;48.066;8.540;2022-11-15T16:05:44;9.20;99.90
21861;DHT22;11095;48.066;8.540;2022-11-15T16:08:27;9.20;99.90
21861;DHT22;11095;48.066;8.540;2022-11-15T16:10:55;9.10;99.90
21861;DHT22;11095;48.066;8.540;2022-11-15T16:13:20;9.10;99.90
21861;DHT22;11095;48.066;8.540;2022-11-15T16:15:49;9.10;99.90
21861;DHT22;11095;48.066;8.540;2022-11-15T16:18:17;9.10;99.90
21861;DHT22;11095;48.066;8.540;2022-11-15T16:20:45;9.10;99.90
21861;DHT22;11095;48.066;8.540;2022-11-15T16:23:16;9.10;99.90
21861;DHT22;11095;48.066;8.540;2022-11-15T16:25:48;9.10;99.90
21861;DHT22;11095;48.066;8.540;2022-11-15T16:28:18;9.10;99.90
21861;DHT22;11095;48.066;8.540;2022-11-15T16:30:44;9.10;99.90
21861;DHT22;11095;48.066;8.540;2022-11-15T16:33:09;9.00;99.90
21861;DHT22;11095;48.066;8.540;2022-11-15T16:35:35;9.00;99.90
21861;DHT22;11095;48.066;8.540;2022-11-15T16:38:01;9.00;99.90
21861;DHT22;11095;48.066;8.540;2022-11-15T16:40:32;9.00;99.90
21861;DHT22;11095;48.066;8.540;2022-11-15T16:42:59;9.00;99.90
21861;DHT22;11095;48.066;8.540;2022-11-15T16:45:27;9.00;99.90
21861;DHT22;11095;48.066;8.540;2022-11-15T16:47:54;9.00;99.90
21861;DHT22;11095;48.066;8.540;2022-11-15T16:52:49;9.00;99.90
21861;DHT22;11095;48.066;8.540;2022-11-15T16:55:15;9.00;99.90
21861;DHT22;11095;48.066;8.540;2022-11-15T16:57:41;9.00;99.90
21861;DHT22;11095;48.066;8.540;2022-11-15T17:00:10;8.90;99.90
21861;DHT22;11095;48.066;8.540;2022-11-15T17:02:36;8.90;99.90
21861;DHT22;11095;48.066;8.540;2022-11-15T17:05:01;8.90;99.90
21861;DHT22;11095;48.066;8.540;2022-11-15T17:07:27;8.90;99.90
21861;DHT22;11095;48.066;8.540;2022-11-15T17:09:52;8.90;99.90
21861;DHT22;11095;48.066;8.540;2022-11-15T17:12:18;8.90;99.90
21861;DHT22;11095;48.066;8.540;2022-11-15T17:14:44;8.90;99.90
21861;DHT22;11095;48.066;8.540;2022-11-15T17:17:10;8.90;99.90
21861;DHT22;11095;48.066;8.540;2022-11-15T17:19:36;8.90;99.90
21861;DHT22;11095;48.066;8.540;2022-11-15T17:22:01;8.80;99.90
21861;DHT22;11095;48.066;8.540;2022-11-15T17:24:27;8.80;99.90
21861;DHT22;11095;48.066;8.540;2022-11-15T17:26:52;8.80;99.90
21861;DHT22;11095;48.066;8.540;2022-11-15T17:29:18;8.80;99.90
21861;DHT22;11095;48.066;8.540;2022-11-15T17:31:44;8.70;99.90
21861;DHT22;11095;48.066;8.540;2022-11-15T17:34:09;8.70;99.90
21861;DHT22;11095;48.066;8.540;2022-11-15T17:36:38;8.70;99.90
21861;DHT22;11095;48.066;8.540;2022-11-15T17:41:49;8.70;99.90
21861;DHT22;11095;48.066;8.540;2022-11-15T17:44:15;8.70;99.90
21861;DHT22;11095;48.066;8.540;2022-11-15T17:46:40;8.70;99.90
21861;DHT22;11095;48.066;8.540;2022-11-15T17:49:06;8.60;99.90
21861;DHT22;11095;48.066;8.540;2022-11-15T17:51:32;8.70;99.90
21861;DHT22;11095;48.066;8.540;2022-11-15T17:53:58;8.70;99.90
21861;DHT22;11095;48.066;8.540;2022-11-15T17:56:25;8.60;99.90
21861;DHT22;11095;48.066;8.540;2022-11-15T17:58:56;8.70;99.90
21861;DHT22;11095;48.066;8.540;2022-11-15T18:01:28;8.60;99.90
21861;DHT22;11095;48.066;8.540;2022-11-15T18:03:54;8.60;99.90
21861;DHT22;11095;48.066;8.540;2022-11-15T18:06:23;8.60;99.90
21861;DHT22;11095;48.066;8.540;2022-11-15T18:08:50;8.60;99.90
21861;DHT22;11095;48.066;8.540;2022-11-15T18:11:18;8.60;99.90
21861;DHT22;11095;48.066;8.540;2022-11-15T18:13:54;8.60;99.90
21861;DHT22;11095;48.066;8.540;2022-11-15T18:16:22;8.60;99.90
21861;DHT22;11095;48.066;8.540;2022-11-15T18:18:50;8.60;99.90
21861;DHT22;11095;48.066;8.540;2022-11-15T18:21:28;8.50;99.90
21861;DHT22;11095;48.066;8.540;2022-11-15T18:23:56;8.50;99.90
21861;DHT22;11095;48.066;8.540;2022-11-15T18:26:23;8.40;99.90
21861;DHT22;11095;48.066;8.540;2022-11-15T18:28:53;8.50;99.90
21861;DHT22;11095;48.066;8.540;2022-11-15T18:31:25;8.40;99.90